createdAt,value
2017-05-30T00:00:22.604Z,1006.69
2017-05-30T00:01:35.181Z,1006.63
2017-05-30T00:02:47.721Z,1006.55
2017-05-30T00:04:00.248Z,1006.52
2017-05-30T00:05:11.848Z,1006.51
2017-05-30T00:06:24.362Z,1006.48
2017-05-30T00:07:36.588Z,1006.48
2017-05-30T00:08:49.132Z,1006.46
2017-05-30T00:10:01.380Z,1006.42
2017-05-30T00:11:13.616Z,1006.47
2017-05-30T00:12:26.169Z,1006.42
2017-05-30T00:13:38.689Z,1006.45
2017-05-30T00:14:51.234Z,1006.41
2017-05-30T00:16:03.797Z,1006.37
2017-05-30T00:17:16.044Z,1006.34
2017-05-30T00:18:28.576Z,1006.3
2017-05-30T00:19:40.810Z,1006.26
2017-05-30T00:20:53.339Z,1006.22
2017-05-30T00:22:05.861Z,1006.19
2017-05-30T00:23:18.062Z,1006.18
2017-05-30T00:24:30.322Z,1006.13
2017-05-30T00:25:42.880Z,1006.15
2017-05-30T00:26:55.447Z,1006.15
2017-05-30T00:28:07.917Z,1006.1
2017-05-30T00:29:19.859Z,1006.15
2017-05-30T00:30:32.127Z,1006.1
2017-05-30T00:31:44.652Z,1006.11
2017-05-30T00:32:56.893Z,1006.13
2017-05-30T00:34:09.420Z,1006.08
2017-05-30T00:35:21.343Z,1006.14
2017-05-30T00:36:33.264Z,1006.17
2017-05-30T00:37:45.786Z,1006.1
2017-05-30T00:38:58.353Z,1006.14
2017-05-30T00:40:10.566Z,1006.08
2017-05-30T00:41:22.519Z,1006.08
2017-05-30T00:42:35.084Z,1006.08
2017-05-30T00:43:47.615Z,1006.07
2017-05-30T00:44:59.575Z,1006.1
2017-05-30T00:46:11.806Z,1006.05
2017-05-30T00:47:24.353Z,1006
2017-05-30T00:48:36.869Z,1005.98
2017-05-30T00:49:49.369Z,1005.96
2017-05-30T00:51:01.937Z,1006
2017-05-30T00:52:14.461Z,1005.96
2017-05-30T00:53:26.720Z,1005.98
2017-05-30T00:54:39.265Z,1005.96
2017-05-30T00:55:51.813Z,1005.97
2017-05-30T00:57:04.059Z,1005.97
2017-05-30T00:58:16.289Z,1005.93
2017-05-30T00:59:28.529Z,1005.91
2017-05-30T01:00:41.071Z,1005.9
2017-05-30T01:01:53.604Z,1005.89
2017-05-30T01:03:06.128Z,1005.88
2017-05-30T01:04:18.668Z,1005.85
2017-05-30T01:05:31.458Z,1005.84
2017-05-30T01:06:44.004Z,1005.75
2017-05-30T01:07:56.533Z,1005.72
2017-05-30T01:09:08.783Z,1005.71
2017-05-30T01:10:21.313Z,1005.72
2017-05-30T01:11:33.842Z,1005.74
2017-05-30T01:12:46.364Z,1005.72
2017-05-30T01:13:58.909Z,1005.79
2017-05-30T01:15:11.473Z,1005.81
2017-05-30T01:16:24.003Z,1005.85
2017-05-30T01:17:36.567Z,1005.87
2017-05-30T01:18:49.173Z,1005.89
2017-05-30T01:20:01.757Z,1005.96
2017-05-30T01:21:14.284Z,1005.95
2017-05-30T01:22:26.830Z,1005.93
2017-05-30T01:23:39.379Z,1005.92
2017-05-30T01:24:51.625Z,1005.87
2017-05-30T01:26:04.197Z,1005.84
2017-05-30T01:27:16.768Z,1005.85
2017-05-30T01:28:28.684Z,1005.85
2017-05-30T01:29:40.905Z,1005.86
2017-05-30T01:30:53.452Z,1005.83
2017-05-30T01:32:05.401Z,1005.84
2017-05-30T01:33:17.344Z,1005.82
2017-05-30T01:34:29.881Z,1005.85
2017-05-30T01:35:42.389Z,1005.83
2017-05-30T01:36:54.631Z,1005.81
2017-05-30T01:38:06.577Z,1005.81
2017-05-30T01:39:19.102Z,1005.83
2017-05-30T01:40:31.644Z,1005.78
2017-05-30T01:41:44.183Z,1005.77
2017-05-30T01:42:56.703Z,1005.74
2017-05-30T01:44:09.553Z,1005.68
2017-05-30T01:45:22.082Z,1005.68
2017-05-30T01:46:34.331Z,1005.7
2017-05-30T01:47:46.822Z,1005.69
2017-05-30T01:48:59.621Z,1005.69
2017-05-30T01:50:12.182Z,1005.66
2017-05-30T01:51:24.427Z,1005.63
2017-05-30T01:52:36.400Z,1005.65
2017-05-30T01:53:48.927Z,1005.61
2017-05-30T01:55:01.462Z,1005.63
2017-05-30T01:56:14.008Z,1005.66
2017-05-30T01:57:26.515Z,1005.62
2017-05-30T01:58:39.079Z,1005.63
2017-05-30T01:59:51.879Z,1005.63
2017-05-30T02:01:03.804Z,1005.6
2017-05-30T02:02:16.065Z,1005.61
2017-05-30T02:03:28.366Z,1005.58
2017-05-30T02:04:40.913Z,1005.56
2017-05-30T02:05:53.461Z,1005.54
2017-05-30T02:07:05.982Z,1005.49
2017-05-30T02:08:18.579Z,1005.49
2017-05-30T02:09:31.120Z,1005.47
2017-05-30T02:10:43.641Z,1005.46
2017-05-30T02:11:56.160Z,1005.42
2017-05-30T02:13:08.112Z,1005.39
2017-05-30T02:14:20.054Z,1005.39
2017-05-30T02:15:32.576Z,1005.36
2017-05-30T02:16:44.777Z,1005.36
2017-05-30T02:17:57.026Z,1005.37
2017-05-30T02:19:09.308Z,1005.4
2017-05-30T02:20:21.509Z,1005.37
2017-05-30T02:21:33.729Z,1005.38
2017-05-30T02:22:46.280Z,1005.36
2017-05-30T02:23:58.891Z,1005.36
2017-05-30T02:25:11.449Z,1005.3
2017-05-30T02:26:23.688Z,1005.28
2017-05-30T02:27:36.235Z,1005.27
2017-05-30T02:28:48.782Z,1005.24
2017-05-30T02:30:01.329Z,1005.21
2017-05-30T02:31:13.272Z,1005.19
2017-05-30T02:32:25.839Z,1005.18
2017-05-30T02:33:38.394Z,1005.17
2017-05-30T02:34:50.936Z,1005.17
2017-05-30T02:36:03.136Z,1005.11
2017-05-30T02:37:15.076Z,1005.14
2017-05-30T02:38:27.641Z,1005.15
2017-05-30T02:39:40.187Z,1005.13
2017-05-30T02:40:52.420Z,1005.13
2017-05-30T02:42:04.961Z,1005.12
2017-05-30T02:43:17.503Z,1005.09
2017-05-30T02:44:30.053Z,1005.08
2017-05-30T02:45:42.581Z,1005.11
2017-05-30T02:46:55.125Z,1005.1
2017-05-30T02:48:07.340Z,1005.07
2017-05-30T02:49:19.607Z,1005.05
2017-05-30T02:50:31.857Z,1005.08
2017-05-30T02:51:44.409Z,1005.04
2017-05-30T02:52:56.955Z,1005.04
2017-05-30T02:54:09.495Z,1005.05
2017-05-30T02:55:22.041Z,1005.08
2017-05-30T02:56:34.278Z,1005.07
2017-05-30T02:57:46.532Z,1005.07
2017-05-30T02:58:59.083Z,1005.11
2017-05-30T03:00:11.628Z,1005.08
2017-05-30T03:01:24.162Z,1005.07
2017-05-30T03:02:36.695Z,1005.06
2017-05-30T03:03:49.233Z,1005.04
2017-05-30T03:05:01.787Z,1005.04
2017-05-30T03:06:14.326Z,1005.1
2017-05-30T03:07:26.554Z,1005.07
2017-05-30T03:08:39.104Z,1005.09
2017-05-30T03:09:51.345Z,1005.13
2017-05-30T03:11:03.591Z,1005.11
2017-05-30T03:12:16.125Z,1005.12
2017-05-30T03:13:28.351Z,1005.09
2017-05-30T03:14:40.904Z,1005.07
2017-05-30T03:15:53.438Z,1005.09
2017-05-30T03:17:05.963Z,1005.11
2017-05-30T03:18:18.466Z,1005.11
2017-05-30T03:19:30.113Z,1005.12
2017-05-30T03:20:42.625Z,1005.1
2017-05-30T03:21:54.568Z,1005.12
2017-05-30T03:23:06.818Z,1005.14
2017-05-30T03:24:18.760Z,1005.15
2017-05-30T03:25:30.993Z,1005.17
2017-05-30T03:26:43.530Z,1005.17
2017-05-30T03:27:56.084Z,1005.19
2017-05-30T03:29:08.025Z,1005.16
2017-05-30T03:30:20.250Z,1005.22
2017-05-30T03:31:32.810Z,1005.2
2017-05-30T03:32:45.362Z,1005.23
2017-05-30T03:33:57.909Z,1005.25
2017-05-30T03:35:10.148Z,1005.25
2017-05-30T03:36:22.077Z,1005.24
2017-05-30T03:37:34.598Z,1005.23
2017-05-30T03:38:47.136Z,1005.21
2017-05-30T03:39:59.645Z,1005.21
2017-05-30T03:41:11.889Z,1005.17
2017-05-30T03:42:24.431Z,1005.21
2017-05-30T03:43:37.252Z,1005.2
2017-05-30T03:44:49.498Z,1005.23
2017-05-30T03:46:01.738Z,1005.2
2017-05-30T03:47:13.982Z,1005.21
2017-05-30T03:48:26.236Z,1005.19
2017-05-30T03:49:38.735Z,1005.2
2017-05-30T03:50:51.299Z,1005.18
2017-05-30T03:52:03.823Z,1005.18
2017-05-30T03:53:15.753Z,1005.15
2017-05-30T03:54:27.994Z,1005.19
2017-05-30T03:55:40.539Z,1005.16
2017-05-30T03:56:53.082Z,1005.2
2017-05-30T03:58:05.309Z,1005.15
2017-05-30T03:59:17.254Z,1005.19
2017-05-30T04:00:29.796Z,1005.2
2017-05-30T04:01:41.761Z,1005.18
2017-05-30T04:02:54.292Z,1005.23
2017-05-30T04:04:06.849Z,1005.17
2017-05-30T04:05:18.775Z,1005.16
2017-05-30T04:06:30.731Z,1005.16
2017-05-30T04:07:43.289Z,1005.1
2017-05-30T04:08:55.521Z,1005.14
2017-05-30T04:10:08.088Z,1005.11
2017-05-30T04:11:20.651Z,1005.07
2017-05-30T04:12:33.171Z,1005.08
2017-05-30T04:13:45.721Z,1005.07
2017-05-30T04:14:57.974Z,1005.14
2017-05-30T04:16:10.221Z,1005.12
2017-05-30T04:17:22.767Z,1005.07
2017-05-30T04:18:35.008Z,1005.13
2017-05-30T04:19:47.272Z,1005.12
2017-05-30T04:20:59.805Z,1005.08
2017-05-30T04:22:12.368Z,1005.07
2017-05-30T04:23:24.913Z,1005.06
2017-05-30T04:24:37.467Z,1005.06
2017-05-30T04:25:49.688Z,1005.06
2017-05-30T04:27:01.634Z,1005.09
2017-05-30T04:28:13.875Z,1005.08
2017-05-30T04:29:26.118Z,1005.12
2017-05-30T04:30:38.688Z,1005.15
2017-05-30T04:31:50.934Z,1005.11
2017-05-30T04:33:03.487Z,1005.14
2017-05-30T04:34:16.030Z,1005.11
2017-05-30T04:35:28.255Z,1005.07
2017-05-30T04:36:40.490Z,1005.08
2017-05-30T04:37:53.021Z,1005.05
2017-05-30T04:39:04.990Z,1005.03
2017-05-30T04:40:17.539Z,1005.08
2017-05-30T04:41:29.798Z,1004.99
2017-05-30T04:42:42.578Z,1004.93
2017-05-30T04:43:55.127Z,1004.99
2017-05-30T04:45:07.672Z,1004.97
2017-05-30T04:46:19.616Z,1005.02
2017-05-30T04:47:32.132Z,1005.03
2017-05-30T04:48:44.360Z,1005.01
2017-05-30T04:49:56.883Z,1005.01
2017-05-30T04:51:09.419Z,1004.98
2017-05-30T04:52:21.990Z,1004.98
2017-05-30T04:53:33.968Z,1004.96
2017-05-30T04:54:46.212Z,1004.94
2017-05-30T04:55:58.791Z,1004.96
2017-05-30T04:57:11.346Z,1004.9
2017-05-30T04:58:23.549Z,1004.92
2017-05-30T04:59:35.776Z,1004.91
2017-05-30T05:00:48.315Z,1004.94
2017-05-30T05:02:00.812Z,1004.91
2017-05-30T05:03:13.307Z,1004.87
2017-05-30T05:04:25.855Z,1004.86
2017-05-30T05:05:38.078Z,1004.83
2017-05-30T05:06:50.622Z,1004.8
2017-05-30T05:08:02.547Z,1004.8
2017-05-30T05:09:14.788Z,1004.77
2017-05-30T05:10:26.712Z,1004.79
2017-05-30T05:11:38.956Z,1004.78
2017-05-30T05:12:51.475Z,1004.77
2017-05-30T05:14:03.724Z,1004.76
2017-05-30T05:15:16.520Z,1004.79
2017-05-30T05:16:29.065Z,1004.81
2017-05-30T05:17:41.350Z,1004.83
2017-05-30T05:18:53.559Z,1004.85
2017-05-30T05:20:06.128Z,1004.85
2017-05-30T05:21:18.356Z,1004.85
2017-05-30T05:22:30.871Z,1004.82
2017-05-30T05:23:43.406Z,1004.74
2017-05-30T05:24:55.959Z,1004.77
2017-05-30T05:26:08.483Z,1004.75
2017-05-30T05:27:20.707Z,1004.7
2017-05-30T05:28:33.250Z,1004.67
2017-05-30T05:29:45.514Z,1004.7
2017-05-30T05:30:58.092Z,1004.67
2017-05-30T05:32:10.381Z,1004.68
2017-05-30T05:33:22.933Z,1004.65
2017-05-30T05:34:35.482Z,1004.66
2017-05-30T05:35:48.002Z,1004.7
2017-05-30T05:37:00.567Z,1004.7
2017-05-30T05:38:13.119Z,1004.72
2017-05-30T05:39:25.381Z,1004.71
2017-05-30T05:40:37.934Z,1004.74
2017-05-30T05:41:50.477Z,1004.79
2017-05-30T05:43:02.733Z,1004.79
2017-05-30T05:44:15.318Z,1004.8
2017-05-30T05:45:27.565Z,1004.75
2017-05-30T05:46:40.128Z,1004.71
2017-05-30T05:47:52.638Z,1004.71
2017-05-30T05:49:05.183Z,1004.68
2017-05-30T05:50:17.428Z,1004.72
2017-05-30T05:51:29.623Z,1004.7
2017-05-30T05:52:41.862Z,1004.7
2017-05-30T05:53:54.411Z,1004.63
2017-05-30T05:55:06.960Z,1004.68
2017-05-30T05:56:19.528Z,1004.7
2017-05-30T05:57:31.469Z,1004.64
2017-05-30T05:58:44.267Z,1004.69
2017-05-30T05:59:56.799Z,1004.62
2017-05-30T06:01:09.037Z,1004.62
2017-05-30T06:02:21.260Z,1004.66
2017-05-30T06:03:33.805Z,1004.63
2017-05-30T06:04:46.353Z,1004.64
2017-05-30T06:05:58.965Z,1004.64
2017-05-30T06:07:11.518Z,1004.58
2017-05-30T06:08:23.765Z,1004.61
2017-05-30T06:09:35.687Z,1004.64
2017-05-30T06:10:47.933Z,1004.63
2017-05-30T06:12:00.195Z,1004.62
2017-05-30T06:13:12.138Z,1004.61
2017-05-30T06:14:24.384Z,1004.66
2017-05-30T06:15:36.679Z,1004.72
2017-05-30T06:16:48.887Z,1004.74
2017-05-30T06:18:01.422Z,1004.82
2017-05-30T06:19:13.967Z,1004.98
2017-05-30T06:20:26.517Z,1004.79
2017-05-30T06:21:39.071Z,1004.67
2017-05-30T06:22:51.616Z,1004.81
2017-05-30T06:24:03.851Z,1004.77
2017-05-30T06:25:16.083Z,1004.75
2017-05-30T06:26:28.675Z,1004.67
2017-05-30T06:27:41.224Z,1004.78
2017-05-30T06:28:53.488Z,1004.65
2017-05-30T06:30:06.064Z,1004.64
2017-05-30T06:31:18.587Z,1004.69
2017-05-30T06:32:30.813Z,1004.79
2017-05-30T06:33:43.352Z,1004.83
2017-05-30T06:34:55.618Z,1005.07
2017-05-30T06:36:07.847Z,1005.29
2017-05-30T06:37:20.409Z,1005.35
2017-05-30T06:38:32.354Z,1005.32
2017-05-30T06:39:44.309Z,1004.96
2017-05-30T06:40:56.580Z,1004.77
2017-05-30T06:42:09.090Z,1004.86
2017-05-30T06:43:21.300Z,1004.93
2017-05-30T06:44:33.543Z,1004.91
2017-05-30T06:45:46.106Z,1004.83
2017-05-30T06:46:58.355Z,1004.8
2017-05-30T06:48:10.286Z,1004.87
2017-05-30T06:49:22.861Z,1005.2
2017-05-30T06:50:35.419Z,1005.43
2017-05-30T06:51:47.982Z,1005.39
2017-05-30T06:53:00.235Z,1004.95
2017-05-30T06:54:12.459Z,1005.13
2017-05-30T06:55:24.718Z,1005.06
2017-05-30T06:56:36.979Z,1005.45
2017-05-30T06:57:49.522Z,1004.97
2017-05-30T06:59:02.093Z,1005.33
2017-05-30T07:00:14.640Z,1005.44
2017-05-30T07:01:27.203Z,1005.45
2017-05-30T07:02:39.145Z,1005.37
2017-05-30T07:03:51.723Z,1005.18
2017-05-30T07:05:03.998Z,1005.05
2017-05-30T07:06:16.595Z,1004.68
2017-05-30T07:07:28.557Z,1004.74
2017-05-30T07:08:40.808Z,1005
2017-05-30T07:09:53.374Z,1005
2017-05-30T07:11:05.047Z,1004.71
2017-05-30T07:12:17.319Z,1004.91
2017-05-30T07:13:29.570Z,1004.97
2017-05-30T07:14:41.841Z,1004.95
2017-05-30T07:15:54.133Z,1004.99
2017-05-30T07:17:06.385Z,1004.93
2017-05-30T07:18:18.626Z,1004.93
2017-05-30T07:19:30.571Z,1004.94
2017-05-30T07:20:43.117Z,1004.92
2017-05-30T07:21:55.691Z,1004.92
2017-05-30T07:23:08.237Z,1004.96
2017-05-30T07:24:20.509Z,1004.93
2017-05-30T07:25:32.554Z,1004.97
2017-05-30T07:26:45.116Z,1005
2017-05-30T07:27:57.393Z,1005
2017-05-30T07:29:09.955Z,1005.03
2017-05-30T07:30:22.215Z,1005.02
2017-05-30T07:31:34.176Z,1005.01
2017-05-30T07:32:46.696Z,1005
2017-05-30T07:33:59.251Z,1004.97
2017-05-30T07:35:11.821Z,1004.97
2017-05-30T07:36:24.407Z,1005.05
2017-05-30T07:37:36.952Z,1005.06
2017-05-30T07:38:49.201Z,1004.98
2017-05-30T07:40:01.498Z,1004.96
2017-05-30T07:41:14.039Z,1004.92
2017-05-30T07:42:26.297Z,1004.89
2017-05-30T07:43:38.258Z,1004.93
2017-05-30T07:44:50.819Z,1004.92
2017-05-30T07:46:03.081Z,1004.85
2017-05-30T07:47:15.328Z,1004.91
2017-05-30T07:48:27.598Z,1004.89
2017-05-30T07:49:39.839Z,1004.9
2017-05-30T07:50:52.414Z,1004.94
2017-05-30T07:52:04.952Z,1004.93
2017-05-30T07:53:17.505Z,1004.89
2017-05-30T07:54:29.452Z,1004.86
2017-05-30T07:55:42.052Z,1004.93
2017-05-30T07:56:54.622Z,1005.05
2017-05-30T07:58:07.492Z,1005.11
2017-05-30T07:59:19.792Z,1005.04
2017-05-30T08:00:32.050Z,1005.03
2017-05-30T08:01:44.622Z,1005.02
2017-05-30T08:02:57.171Z,1004.96
2017-05-30T08:04:09.796Z,1004.9
2017-05-30T08:05:21.761Z,1004.89
2017-05-30T08:06:34.020Z,1004.79
2017-05-30T08:07:45.978Z,1004.72
2017-05-30T08:08:58.553Z,1004.8
2017-05-30T08:10:10.804Z,1004.75
2017-05-30T08:11:22.745Z,1004.71
2017-05-30T08:12:34.994Z,1004.65
2017-05-30T08:13:47.541Z,1004.63
2017-05-30T08:14:59.783Z,1004.67
2017-05-30T08:16:12.406Z,1004.66
2017-05-30T08:17:24.376Z,1004.68
2017-05-30T08:18:36.949Z,1004.61
2017-05-30T08:19:49.519Z,1004.62
2017-05-30T08:21:02.063Z,1004.62
2017-05-30T08:22:14.337Z,1004.6
2017-05-30T08:23:26.629Z,1004.55
2017-05-30T08:24:38.879Z,1004.51
2017-05-30T08:25:51.140Z,1004.52
2017-05-30T08:27:03.397Z,1004.56
2017-05-30T08:28:15.943Z,1004.63
2017-05-30T08:29:28.501Z,1004.65
2017-05-30T08:30:40.460Z,1004.78
2017-05-30T08:31:52.739Z,1004.83
2017-05-30T08:33:04.978Z,1004.79
2017-05-30T08:34:16.648Z,1004.78
2017-05-30T08:35:28.644Z,1004.73
2017-05-30T08:36:41.212Z,1004.69
2017-05-30T08:37:53.780Z,1004.73
2017-05-30T08:39:05.759Z,1004.7
2017-05-30T08:40:17.764Z,1004.75
2017-05-30T08:41:29.994Z,1004.76
2017-05-30T08:42:42.239Z,1004.72
2017-05-30T08:43:54.186Z,1004.72
2017-05-30T08:45:06.755Z,1004.65
2017-05-30T08:46:19.047Z,1004.72
2017-05-30T08:47:31.600Z,1004.72
2017-05-30T08:48:43.851Z,1004.77
2017-05-30T08:49:56.091Z,1004.82
2017-05-30T08:51:08.336Z,1004.84
2017-05-30T08:52:20.626Z,1004.88
2017-05-30T08:53:32.904Z,1004.86
2017-05-30T08:54:45.452Z,1004.86
2017-05-30T08:55:58.036Z,1004.79
2017-05-30T08:57:09.369Z,1004.73
2017-05-30T08:58:21.911Z,1004.75
2017-05-30T08:59:34.488Z,1004.74
2017-05-30T09:00:47.059Z,1004.73
2017-05-30T09:01:59.037Z,1004.67
2017-05-30T09:03:11.298Z,1004.69
2017-05-30T09:04:23.565Z,1004.64
2017-05-30T09:05:35.785Z,1004.76
2017-05-30T09:06:47.760Z,1004.7
2017-05-30T09:08:00.325Z,1004.7
2017-05-30T09:09:12.303Z,1004.69
2017-05-30T09:10:24.563Z,1004.77
2017-05-30T09:11:37.134Z,1004.77
2017-05-30T09:12:48.787Z,1004.79
2017-05-30T09:14:01.362Z,1004.82
2017-05-30T09:15:13.631Z,1004.82
2017-05-30T09:16:25.303Z,1004.73
2017-05-30T09:17:37.591Z,1004.74
2017-05-30T09:18:49.821Z,1004.8
2017-05-30T09:20:02.390Z,1004.86
2017-05-30T09:21:14.663Z,1004.81
2017-05-30T09:22:26.609Z,1004.82
2017-05-30T09:23:38.580Z,1004.83
2017-05-30T09:24:51.075Z,1004.82
2017-05-30T09:26:03.647Z,1004.87
2017-05-30T09:27:15.912Z,1004.89
2017-05-30T09:28:28.165Z,1004.99
2017-05-30T09:29:40.730Z,1004.95
2017-05-30T09:30:53.330Z,1004.97
2017-05-30T09:32:05.601Z,1004.98
2017-05-30T09:33:18.147Z,1005.17
2017-05-30T09:34:30.435Z,1005.21
2017-05-30T09:35:42.413Z,1005.19
2017-05-30T09:36:54.100Z,1005.12
2017-05-30T09:38:06.079Z,1005.05
2017-05-30T09:39:18.350Z,1004.93
2017-05-30T09:40:30.894Z,1004.95
2017-05-30T09:41:42.617Z,1004.95
2017-05-30T09:42:55.191Z,1005.01
2017-05-30T09:44:07.459Z,1004.97
2017-05-30T09:45:19.430Z,1004.9
2017-05-30T09:46:31.677Z,1004.83
2017-05-30T09:47:44.246Z,1004.82
2017-05-30T09:48:55.891Z,1004.84
2017-05-30T09:50:08.139Z,1004.82
2017-05-30T09:51:20.401Z,1004.9
2017-05-30T09:52:32.053Z,1004.82
2017-05-30T09:53:44.603Z,1004.74
2017-05-30T09:54:57.197Z,1004.84
2017-05-30T09:56:09.171Z,1004.89
2017-05-30T09:57:21.443Z,1004.74
2017-05-30T09:58:33.709Z,1004.6
2017-05-30T09:59:45.658Z,1004.58
2017-05-30T10:00:57.927Z,1004.64
2017-05-30T10:02:10.494Z,1004.73
2017-05-30T10:03:23.071Z,1004.71
2017-05-30T10:04:35.041Z,1004.79
2017-05-30T10:05:47.609Z,1004.87
2017-05-30T10:06:59.848Z,1004.82
2017-05-30T10:08:11.805Z,1004.79
2017-05-30T10:09:24.070Z,1004.73
2017-05-30T10:10:36.028Z,1004.65
2017-05-30T10:11:48.591Z,1004.8
2017-05-30T10:13:01.163Z,1004.88
2017-05-30T10:14:13.396Z,1005.03
2017-05-30T10:15:25.928Z,1004.99
2017-05-30T10:16:38.471Z,1005.07
2017-05-30T10:17:50.110Z,1005.08
2017-05-30T10:19:02.588Z,1005.14
2017-05-30T10:20:14.555Z,1005.21
2017-05-30T10:21:26.805Z,1005
2017-05-30T10:22:39.350Z,1004.98
2017-05-30T10:23:51.625Z,1004.95
2017-05-30T10:25:04.187Z,1004.89
2017-05-30T10:26:16.421Z,1004.92
2017-05-30T10:27:28.965Z,1004.98
2017-05-30T10:28:41.226Z,1005.03
2017-05-30T10:29:53.772Z,1005.11
2017-05-30T10:31:06.045Z,1005.02
2017-05-30T10:32:18.294Z,1005.12
2017-05-30T10:33:30.235Z,1005.12
2017-05-30T10:34:42.805Z,1005.35
2017-05-30T10:35:55.383Z,1005.47
2017-05-30T10:37:07.944Z,1005.49
2017-05-30T10:38:20.500Z,1005.49
2017-05-30T10:39:32.471Z,1005.53
2017-05-30T10:40:44.731Z,1005.46
2017-05-30T10:41:57.256Z,1005.44
2017-05-30T10:43:09.831Z,1005.44
2017-05-30T10:44:22.077Z,1005.47
2017-05-30T10:45:34.651Z,1005.42
2017-05-30T10:46:46.915Z,1005.41
2017-05-30T10:47:59.162Z,1005.3
2017-05-30T10:49:11.403Z,1005.26
2017-05-30T10:50:23.352Z,1005.12
2017-05-30T10:51:35.623Z,1005.17
2017-05-30T10:52:47.569Z,1005.26
2017-05-30T10:53:59.844Z,1005.28
2017-05-30T10:55:11.807Z,1005.41
2017-05-30T10:56:24.337Z,1005.51
2017-05-30T10:57:36.885Z,1005.89
2017-05-30T10:58:49.444Z,1006.11
2017-05-30T11:00:01.403Z,1006.43
2017-05-30T11:01:13.930Z,1006.67
2017-05-30T11:02:26.494Z,1006.45
2017-05-30T11:03:38.465Z,1006.6
2017-05-30T11:04:50.725Z,1006.66
2017-05-30T11:06:03.340Z,1006.87
2017-05-30T11:07:15.591Z,1007.21
2017-05-30T11:08:27.551Z,1007.4
2017-05-30T11:09:39.484Z,1007.43
2017-05-30T11:10:52.040Z,1007.48
2017-05-30T11:12:04.284Z,1007.25
2017-05-30T11:13:16.225Z,1007.2
2017-05-30T11:14:28.752Z,1007.22
2017-05-30T11:15:41.004Z,1007.21
2017-05-30T11:16:53.563Z,1007.1
2017-05-30T11:18:05.205Z,1007.08
2017-05-30T11:19:16.860Z,1007.16
2017-05-30T11:20:29.413Z,1007.09
2017-05-30T11:21:41.976Z,1007.03
2017-05-30T11:22:54.543Z,1007
2017-05-30T11:24:06.798Z,1007.04
2017-05-30T11:25:18.731Z,1006.97
2017-05-30T11:26:30.951Z,1006.88
2017-05-30T11:27:43.186Z,1006.77
2017-05-30T11:28:55.754Z,1006.69
2017-05-30T11:30:08.305Z,1006.69
2017-05-30T11:31:20.248Z,1006.68
2017-05-30T11:32:32.489Z,1006.74
2017-05-30T11:33:45.005Z,1006.71
2017-05-30T11:34:57.238Z,1006.7
2017-05-30T11:36:09.778Z,1006.78
2017-05-30T11:37:22.044Z,1006.7
2017-05-30T11:38:34.286Z,1006.7
2017-05-30T11:39:46.515Z,1006.68
2017-05-30T11:40:58.742Z,1006.65
2017-05-30T11:42:11.285Z,1006.63
2017-05-30T11:43:23.520Z,1006.6
2017-05-30T11:44:35.466Z,1006.55
2017-05-30T11:45:48.023Z,1006.62
2017-05-30T11:47:00.265Z,1006.68
2017-05-30T11:48:12.207Z,1006.63
2017-05-30T11:49:24.448Z,1006.68
2017-05-30T11:50:36.382Z,1006.74
2017-05-30T11:51:48.923Z,1006.7
2017-05-30T11:53:01.165Z,1006.66
2017-05-30T11:54:13.394Z,1006.69
2017-05-30T11:55:25.641Z,1006.73
2017-05-30T11:56:37.862Z,1006.75
2017-05-30T11:57:50.421Z,1006.81
2017-05-30T11:59:02.956Z,1006.83
2017-05-30T12:00:15.212Z,1006.8
2017-05-30T12:01:27.184Z,1006.9
2017-05-30T12:02:39.732Z,1006.92
2017-05-30T12:03:51.975Z,1007.06
2017-05-30T12:05:04.504Z,1007.12
2017-05-30T12:06:17.033Z,1007.19
2017-05-30T12:07:29.554Z,1007.2
2017-05-30T12:08:42.112Z,1007.22
2017-05-30T12:09:54.354Z,1007.25
2017-05-30T12:11:06.584Z,1007.29
2017-05-30T12:12:18.836Z,1007.31
2017-05-30T12:13:31.353Z,1007.28
2017-05-30T12:14:43.591Z,1007.28
2017-05-30T12:15:56.130Z,1007.21
2017-05-30T12:17:08.071Z,1007.19
2017-05-30T12:18:20.327Z,1007.2
2017-05-30T12:19:32.562Z,1007.15
2017-05-30T12:20:44.801Z,1007.13
2017-05-30T12:21:56.723Z,1007.11
2017-05-30T12:23:08.972Z,1007.05
2017-05-30T12:24:21.520Z,1007.01
2017-05-30T12:25:34.038Z,1006.99
2017-05-30T12:26:46.308Z,1007.02
2017-05-30T12:27:58.552Z,1007.02
2017-05-30T12:29:10.197Z,1007.01
2017-05-30T12:30:22.440Z,1007.05
2017-05-30T12:31:34.766Z,1007.06
2017-05-30T12:32:47.314Z,1007.11
2017-05-30T12:33:59.885Z,1007.05
2017-05-30T12:35:12.125Z,1006.98
2017-05-30T12:36:24.375Z,1006.97
2017-05-30T12:37:36.925Z,1006.92
2017-05-30T12:38:49.168Z,1006.89
2017-05-30T12:40:01.710Z,1006.81
2017-05-30T12:41:14.249Z,1006.73
2017-05-30T12:42:26.778Z,1006.74
2017-05-30T12:43:39.039Z,1006.66
2017-05-30T12:44:50.997Z,1006.63
2017-05-30T12:46:03.539Z,1006.64
2017-05-30T12:47:15.757Z,1006.64
2017-05-30T12:48:28.311Z,1006.67
2017-05-30T12:49:40.575Z,1006.59
2017-05-30T12:50:53.123Z,1006.6
2017-05-30T12:52:05.364Z,1006.58
2017-05-30T12:53:17.912Z,1006.61
2017-05-30T12:54:30.442Z,1006.62
2017-05-30T12:55:42.686Z,1006.6
2017-05-30T12:56:54.920Z,1006.57
2017-05-30T12:58:06.553Z,1006.53
2017-05-30T12:59:19.102Z,1006.51
2017-05-30T13:00:31.370Z,1006.47
2017-05-30T13:01:43.341Z,1006.45
2017-05-30T13:02:55.290Z,1006.46
2017-05-30T13:04:07.250Z,1006.45
2017-05-30T13:05:19.493Z,1006.5
2017-05-30T13:06:31.727Z,1006.59
2017-05-30T13:07:43.684Z,1006.69
2017-05-30T13:08:55.919Z,1006.71
2017-05-30T13:10:08.182Z,1006.65
2017-05-30T13:11:20.150Z,1006.64
2017-05-30T13:12:32.717Z,1006.65
2017-05-30T13:13:44.953Z,1006.62
2017-05-30T13:14:57.244Z,1006.53
2017-05-30T13:16:09.504Z,1006.54
2017-05-30T13:17:21.476Z,1006.53
2017-05-30T13:18:33.384Z,1006.55
2017-05-30T13:19:45.904Z,1006.52
2017-05-30T13:20:58.474Z,1006.51
2017-05-30T13:22:11.064Z,1006.55
2017-05-30T13:23:23.614Z,1006.62
2017-05-30T13:24:36.134Z,1006.59
2017-05-30T13:25:48.676Z,1006.57
2017-05-30T13:27:01.255Z,1006.58
2017-05-30T13:28:13.506Z,1006.55
2017-05-30T13:29:25.753Z,1006.54
2017-05-30T13:30:37.388Z,1006.52
2017-05-30T13:31:49.335Z,1006.51
2017-05-30T13:33:01.274Z,1006.52
2017-05-30T13:34:13.827Z,1006.46
2017-05-30T13:35:26.402Z,1006.43
2017-05-30T13:36:38.969Z,1006.41
2017-05-30T13:37:51.214Z,1006.4
2017-05-30T13:39:03.460Z,1006.4
2017-05-30T13:40:15.474Z,1006.43
2017-05-30T13:41:27.419Z,1006.4
2017-05-30T13:42:39.947Z,1006.37
2017-05-30T13:43:51.886Z,1006.33
2017-05-30T13:45:04.144Z,1006.33
2017-05-30T13:46:16.692Z,1006.32
2017-05-30T13:47:29.257Z,1006.29
2017-05-30T13:48:41.478Z,1006.28
2017-05-30T13:49:54.004Z,1006.24
2017-05-30T13:51:06.526Z,1006.22
2017-05-30T13:52:19.082Z,1006.22
2017-05-30T13:53:31.638Z,1006.3
2017-05-30T13:54:43.865Z,1006.27
2017-05-30T13:55:56.424Z,1006.3
2017-05-30T13:57:08.342Z,1006.46
2017-05-30T13:58:20.875Z,1006.44
2017-05-30T13:59:33.119Z,1006.42
2017-05-30T14:00:45.378Z,1006.35
2017-05-30T14:01:57.933Z,1006.27
2017-05-30T14:03:09.875Z,1006.35
2017-05-30T14:04:21.817Z,1006.28
2017-05-30T14:05:34.045Z,1006.23
2017-05-30T14:06:46.011Z,1006.18
2017-05-30T14:07:58.242Z,1006.19
2017-05-30T14:09:09.881Z,1006.27
2017-05-30T14:10:21.526Z,1006.27
2017-05-30T14:11:33.791Z,1006.24
2017-05-30T14:12:46.022Z,1006.24
2017-05-30T14:13:58.542Z,1006.27
2017-05-30T14:15:10.791Z,1006.39
2017-05-30T14:16:23.376Z,1006.54
2017-05-30T14:17:35.947Z,1006.62
2017-05-30T14:18:48.170Z,1006.7
2017-05-30T14:20:00.426Z,1006.73
2017-05-30T14:21:12.972Z,1006.69
2017-05-30T14:22:25.534Z,1006.63
2017-05-30T14:23:38.089Z,1006.55
2017-05-30T14:24:50.334Z,1006.52
2017-05-30T14:26:02.622Z,1006.54
2017-05-30T14:27:14.890Z,1006.55
2017-05-30T14:28:27.131Z,1006.58
2017-05-30T14:29:39.717Z,1006.62
2017-05-30T14:30:52.264Z,1006.67
2017-05-30T14:32:04.249Z,1006.68
2017-05-30T14:33:16.798Z,1006.67
2017-05-30T14:34:29.068Z,1006.61
2017-05-30T14:35:41.647Z,1006.6
2017-05-30T14:36:53.918Z,1006.6
2017-05-30T14:38:06.505Z,1006.61